Time;durP1;ratioP1;P1;durP2;ratioP2;P2;SDS_P1;SDS_P2;PMS_P1;PMS_P2;Temp;Humidity;BMP_temperature;BMP_pressure;BME280_temperature;BME280_humidity;BME280_pressure;Samples;Min_cycle;Max_cycle;Signal;HPM_P1;HPM_P2
2022/10/01 07:03:54;;;;;;;15.70;2.72;;;17.00;76.70;;;;;;4750097;30;20082;-86
2022/10/01 07:06:20;;;;;;;21.80;2.88;;;16.90;76.90;;;;;;4731403;30;20068;-79
2022/10/01 07:08:49;;;;;;;19.23;3.42;;;16.90;76.50;;;;;;4759746;29;20056;-81
2022/10/01 07:11:15;;;;;;;17.85;2.67;;;16.90;76.10;;;;;;4828862;29;20057;-80
2022/10/01 07:13:41;;;;;;;12.80;2.45;;;16.80;76.00;;;;;;4828769;29;20442;-79
2022/10/01 07:19:22;;;;;;;14.18;2.28;;;16.70;75.80;;;;;;4844418;29;20060;-80
2022/10/01 07:21:48;;;;;;;14.30;2.40;;;16.60;75.80;;;;;;4845080;29;20042;-77
2022/10/01 07:24:13;;;;;;;19.88;3.30;;;16.60;76.00;;;;;;4831049;29;20053;-79
2022/10/01 07:26:39;;;;;;;16.42;2.80;;;16.60;76.40;;;;;;4844563;29;20365;-77
2022/10/01 07:29:05;;;;;;;13.10;2.60;;;16.60;77.10;;;;;;4843427;29;20142;-76
2022/10/01 08:20:27;;;;;;;7.15;1.90;;;16.40;76.10;;;;;;5494354;23;20145;-74
2022/10/01 08:22:53;;;;;;;6.90;1.02;;;16.40;75.80;;;;;;4793288;30;20066;-75
2022/10/01 08:25:19;;;;;;;8.55;2.00;;;16.40;76.20;;;;;;4793639;30;20051;-74
2022/10/01 08:27:45;;;;;;;5.30;1.00;;;16.40;76.20;;;;;;4793493;30;20083;-75
2022/10/01 08:30:11;;;;;;;3.70;1.15;;;16.40;76.20;;;;;;4793108;30;20051;-74
2022/10/01 08:32:37;;;;;;;6.50;1.17;;;16.40;76.20;;;;;;4793316;30;20443;-75
2022/10/01 08:35:03;;;;;;;7.75;1.73;;;16.40;76.10;;;;;;4793156;30;20052;-72
2022/10/01 08:37:29;;;;;;;8.68;1.60;;;16.40;76.30;;;;;;4792255;30;20047;-74
2022/10/01 08:39:55;;;;;;;8.65;2.08;;;16.40;76.40;;;;;;4792045;30;20062;-75
2022/10/01 08:43:08;;;;;;;7.35;1.52;;;16.40;76.50;;;;;;4792466;30;20051;-77
2022/10/01 08:45:45;;;;;;;11.75;1.60;;;16.50;76.60;;;;;;4759288;30;20099;-74
2022/10/01 08:48:23;;;;;;;6.85;1.75;;;16.50;76.60;;;;;;4790569;30;20051;-79
2022/10/01 08:50:56;;;;;;;7.68;1.10;;;16.50;77.10;;;;;;4790447;30;20047;-76
2022/10/01 08:53:37;;;;;;;13.47;2.20;;;16.50;76.50;;;;;;4792255;30;20121;-76
2022/10/01 08:56:03;;;;;;;6.85;1.50;;;16.50;76.40;;;;;;4790277;30;20051;-76
2022/10/01 08:58:40;;;;;;;4.05;1.00;;;16.60;76.40;;;;;;4792708;30;20055;-78
2022/10/01 09:01:05;;;;;;;6.32;1.30;;;16.60;76.30;;;;;;4792461;30;20058;-78
2022/10/01 09:03:32;;;;;;;5.78;1.45;;;16.60;76.30;;;;;;4791938;30;20065;-79
2022/10/01 09:06:30;;;;;;;6.22;1.00;;;16.60;76.30;;;;;;4792190;30;20131;-79
2022/10/01 09:09:14;;;;;;;4.15;0.90;;;16.60;76.20;;;;;;4792238;30;20059;-77
2022/10/01 09:12:19;;;;;;;9.75;1.15;;;16.60;76.10;;;;;;4762103;30;20090;-77
2022/10/01 09:15:16;;;;;;;8.23;1.23;;;16.50;76.10;;;;;;4736861;30;20060;-75
2022/10/01 09:18:08;;;;;;;6.35;0.93;;;16.50;76.20;;;;;;4737348;30;20052;-76
2022/10/01 09:20:44;;;;;;;7.85;1.00;;;16.60;76.20;;;;;;4787990;29;20130;-75
2022/10/01 09:23:29;;;;;;;6.15;1.35;;;16.60;76.20;;;;;;4799965;29;20070;-79
2022/10/01 09:25:57;;;;;;;7.75;1.40;;;16.60;76.10;;;;;;4802542;29;20129;-76
2022/10/01 09:28:27;;;;;;;6.90;1.15;;;16.60;76.10;;;;;;4793980;29;20066;-74
2022/10/01 09:31:20;;;;;;;7.13;0.90;;;16.60;76.10;;;;;;4791327;29;20059;-75
2022/10/01 09:34:24;;;;;;;8.43;1.35;;;16.60;75.90;;;;;;4810722;29;20682;-73
2022/10/01 09:37:13;;;;;;;23.00;2.17;;;16.50;75.70;;;;;;4767441;29;20407;-74
2022/10/01 09:40:09;;;;;;;15.63;1.88;;;16.50;75.90;;;;;;4792700;29;20040;-78
2022/10/01 09:42:35;;;;;;;10.88;1.88;;;16.50;75.80;;;;;;4791981;30;20443;-81
2022/10/01 09:45:00;;;;;;;10.88;1.45;;;16.40;76.00;;;;;;4776206;30;20054;-80
2022/10/01 09:47:27;;;;;;;16.30;1.60;;;16.50;76.70;;;;;;4791955;29;20483;-74
2022/10/01 09:49:52;;;;;;;11.82;1.63;;;16.60;76.80;;;;;;4794566;29;20058;-79
2022/10/01 09:52:27;;;;;;;9.93;1.77;;;16.70;76.70;;;;;;4805491;29;20386;-75
2022/10/01 09:55:04;;;;;;;11.80;1.83;;;16.80;76.50;;;;;;4809157;29;20068;-75
2022/10/01 09:58:01;;;;;;;15.55;2.15;;;16.90;76.50;;;;;;4810235;29;20067;-80
2022/10/01 10:00:27;;;;;;;11.52;1.73;;;16.90;76.30;;;;;;4778832;29;20063;-80
2022/10/01 10:02:54;;;;;;;15.70;1.52;;;16.90;76.20;;;;;;4808902;29;20051;-81
2022/10/01 10:05:42;;;;;;;16.35;1.90;;;17.00;76.30;;;;;;4793819;29;20093;-77
2022/10/01 10:08:39;;;;;;;23.10;1.98;;;17.00;75.30;;;;;;4809330;29;20443;-77
2022/10/01 10:11:09;;;;;;;11.60;2.53;;;17.00;76.30;;;;;;4789238;29;20095;-77
2022/10/01 10:13:40;;;;;;;21.88;3.72;;;17.00;77.00;;;;;;4809971;29;20127;-78
2022/10/01 10:16:17;;;;;;;12.55;1.65;;;17.00;77.10;;;;;;4809457;29;20092;-78
2022/10/01 10:18:51;;;;;;;5.50;0.82;;;17.00;77.00;;;;;;4809629;29;20058;-77
2022/10/01 10:21:20;;;;;;;;;;;17.00;75.90;;;;;;4793473;29;20142;-78
2022/10/01 10:23:50;;;;;;;11.88;1.50;;;16.90;74.90;;;;;;4809665;29;20019;-77
2022/10/01 10:26:27;;;;;;;14.48;1.98;;;16.80;75.70;;;;;;4793006;29;20047;-75
2022/10/01 10:28:55;;;;;;;10.02;1.48;;;16.80;76.00;;;;;;4809451;29;20057;-76
2022/10/01 10:31:26;;;;;;;9.50;1.35;;;16.80;76.90;;;;;;4809383;29;20126;-75
2022/10/01 10:34:30;;;;;;;13.07;1.52;;;16.80;76.70;;;;;;4809284;29;20446;-76
2022/10/01 10:36:58;;;;;;;12.75;2.33;;;16.80;76.30;;;;;;4735444;30;20095;-76
2022/10/01 10:39:36;;;;;;;10.60;1.45;;;16.80;76.80;;;;;;4796240;29;20512;-77
2022/10/01 10:42:04;;;;;;;13.35;2.40;;;16.80;76.80;;;;;;4792589;29;20089;-75
2022/10/01 10:44:36;;;;;;;11.05;1.40;;;16.90;76.80;;;;;;4807867;29;20047;-78
2022/10/01 10:47:06;;;;;;;8.40;1.80;;;16.80;76.90;;;;;;4807178;29;20066;-76
2022/10/01 10:49:39;;;;;;;10.80;1.88;;;16.80;76.90;;;;;;4792394;29;20059;-80
2022/10/01 10:52:16;;;;;;;;;;;16.80;77.00;;;;;;4809310;29;20467;-77
2022/10/01 10:54:47;;;;;;;6.88;1.73;;;16.80;76.60;;;;;;4808793;29;20298;-75
2022/10/01 10:57:27;;;;;;;10.40;2.00;;;16.80;77.10;;;;;;4789180;29;20047;-74
2022/10/01 10:59:58;;;;;;;10.10;1.70;;;16.80;76.90;;;;;;4799857;29;20039;-76
2022/10/01 11:02:29;;;;;;;9.23;2.25;;;16.80;77.10;;;;;;4809032;29;20089;-77
2022/10/01 11:04:57;;;;;;;13.18;1.70;;;16.80;77.20;;;;;;4807023;29;20051;-80
2022/10/01 11:07:25;;;;;;;12.35;3.15;;;16.90;77.40;;;;;;4797187;29;20043;-76
2022/10/01 11:10:12;;;;;;;16.02;2.50;;;16.90;77.70;;;;;;4790531;30;20059;-79
2022/10/01 11:13:03;;;;;;;11.75;1.92;;;16.90;77.70;;;;;;4788174;30;20375;-72
2022/10/01 11:15:45;;;;;;;10.55;2.22;;;16.90;77.30;;;;;;4786038;29;20147;-76
2022/10/01 11:18:54;;;;;;;10.45;1.88;;;16.80;77.10;;;;;;4790090;30;20356;-75
2022/10/01 11:21:57;;;;;;;10.23;1.48;;;16.80;77.00;;;;;;4789778;29;20082;-78
2022/10/01 11:25:04;;;;;;;14.23;1.50;;;16.80;77.50;;;;;;4798060;29;20070;-76
2022/10/01 11:28:06;;;;;;;8.63;1.40;;;16.80;77.20;;;;;;4807764;29;20090;-78
2022/10/01 11:30:58;;;;;;;8.82;2.05;;;16.80;77.10;;;;;;4807674;29;20066;-77
2022/10/01 11:33:31;;;;;;;8.85;1.52;;;16.90;77.60;;;;;;4789133;30;20074;-80
2022/10/01 11:36:31;;;;;;;13.60;1.95;;;16.80;77.60;;;;;;4790309;30;20051;-78
2022/10/01 11:39:11;;;;;;;9.68;1.90;;;16.90;77.80;;;;;;4774700;30;20380;-77
2022/10/01 11:41:41;;;;;;;8.27;1.80;;;16.90;77.60;;;;;;4789625;30;20051;-78
2022/10/01 11:44:13;;;;;;;9.68;1.17;;;16.90;77.50;;;;;;4789893;30;20059;-79
2022/10/01 11:46:48;;;;;;;12.10;1.67;;;16.90;77.50;;;;;;4789611;30;20495;-79
2022/10/01 11:49:39;;;;;;;21.02;2.08;;;16.90;77.30;;;;;;4800484;29;20553;-78
2022/10/01 11:52:34;;;;;;;14.88;1.70;;;16.90;77.70;;;;;;4807836;29;20054;-77
2022/10/01 11:58:50;;;;;;;10.95;1.67;;;17.00;76.90;;;;;;4807680;29;20058;-72
2022/10/01 12:01:50;;;;;;;11.07;2.13;;;17.00;76.80;;;;;;4807449;29;20054;-74
2022/10/01 12:04:38;;;;;;;7.30;1.10;;;17.00;76.60;;;;;;4807871;29;20215;-71
2022/10/01 12:07:16;;;;;;;14.50;1.40;;;17.00;76.70;;;;;;4808315;29;20090;-73
2022/10/01 12:09:51;;;;;;;9.32;1.33;;;16.90;76.70;;;;;;4807981;29;20154;-74
2022/10/01 12:12:22;;;;;;;8.52;1.08;;;16.90;76.70;;;;;;4808094;29;20363;-74
2022/10/01 12:14:57;;;;;;;9.07;2.08;;;16.90;76.70;;;;;;4808038;29;20382;-74
2022/10/01 12:18:01;;;;;;;8.13;1.70;;;16.90;76.70;;;;;;4807845;29;20147;-73
2022/10/01 12:20:40;;;;;;;;;;;16.90;76.70;;;;;;4737400;30;20048;-75
2022/10/01 12:23:13;;;;;;;6.93;0.88;;;16.90;76.40;;;;;;4800772;29;20458;-75
2022/10/01 12:25:51;;;;;;;8.25;1.70;;;16.90;76.70;;;;;;4792009;29;20051;-76
2022/10/01 12:28:25;;;;;;;4.78;1.10;;;16.90;76.70;;;;;;4807818;29;20530;-77
2022/10/01 12:31:02;;;;;;;;;;;16.90;76.70;;;;;;4808293;29;20062;-75
2022/10/01 12:33:50;;;;;;;7.57;1.35;;;16.90;76.60;;;;;;4807937;29;19932;-76
2022/10/01 12:36:24;;;;;;;6.65;1.08;;;16.90;76.80;;;;;;4808293;29;20054;-76
2022/10/01 12:39:01;;;;;;;6.75;1.20;;;16.90;76.80;;;;;;4791715;29;20054;-74
2022/10/01 12:41:59;;;;;;;5.45;0.93;;;16.90;76.70;;;;;;4807455;29;20046;-76
2022/10/01 12:44:35;;;;;;;4.97;0.90;;;16.90;76.60;;;;;;4807530;29;20051;-73
2022/10/01 12:47:04;;;;;;;3.90;1.02;;;16.90;76.70;;;;;;4807785;29;20141;-73
2022/10/01 12:49:43;;;;;;;6.13;0.95;;;16.90;76.70;;;;;;4807711;29;20494;-72
2022/10/01 12:52:32;;;;;;;7.25;0.70;;;16.90;76.80;;;;;;4807278;29;20371;-73
2022/10/01 12:55:28;;;;;;;8.85;1.08;;;16.90;76.60;;;;;;4807276;29;20094;-73
2022/10/01 12:58:11;;;;;;;9.13;1.13;;;17.00;76.60;;;;;;4807314;29;20058;-73
2022/10/01 13:00:58;;;;;;;9.15;1.40;;;16.90;76.40;;;;;;4807558;29;20047;-73
2022/10/01 13:03:47;;;;;;;5.47;0.93;;;17.00;76.60;;;;;;4808156;29;20046;-74
2022/10/01 13:06:39;;;;;;;9.70;1.20;;;16.90;76.50;;;;;;4810314;29;20418;-75
2022/10/01 13:09:43;;;;;;;6.10;1.20;;;17.00;76.60;;;;;;4785031;29;20059;-75
2022/10/01 13:12:34;;;;;;;6.13;1.40;;;17.10;76.80;;;;;;4798954;29;20104;-71
2022/10/01 13:15:01;;;;;;;10.20;1.80;;;17.00;76.80;;;;;;4794911;29;20062;-75
2022/10/01 13:17:51;;;;;;;11.07;1.73;;;17.00;76.90;;;;;;4810854;29;20138;-76
2022/10/01 13:20:17;;;;;;;14.18;2.47;;;17.00;76.80;;;;;;4779824;29;20137;-75
2022/10/01 13:22:54;;;;;;;8.68;1.38;;;17.00;76.40;;;;;;4792398;29;20200;-77
2022/10/01 13:26:01;;;;;;;8.98;1.35;;;17.10;76.30;;;;;;4810023;29;20094;-79
2022/10/01 13:28:37;;;;;;;10.50;1.98;;;17.00;76.30;;;;;;4809007;29;20113;-80
2022/10/01 13:31:13;;;;;;;8.15;1.67;;;17.00;76.40;;;;;;4793843;29;20092;-78
2022/10/01 13:33:39;;;;;;;9.77;1.45;;;17.00;76.40;;;;;;4809862;29;20435;-78
2022/10/01 13:36:09;;;;;;;9.15;2.28;;;17.00;76.50;;;;;;4809200;29;20447;-79
2022/10/01 13:38:37;;;;;;;10.07;2.13;;;17.00;76.40;;;;;;4809766;29;20491;-78
2022/10/01 13:41:16;;;;;;;8.45;1.30;;;17.00;76.40;;;;;;4809870;29;20366;-77
2022/10/01 13:44:17;;;;;;;11.43;1.98;;;17.00;76.30;;;;;;4809781;29;20062;-77
2022/10/01 13:47:17;;;;;;;10.45;1.17;;;17.00;76.50;;;;;;4760457;29;20121;-73
2022/10/01 13:49:53;;;;;;;13.50;2.25;;;17.00;76.50;;;;;;4796392;29;20066;-78
2022/10/01 13:52:20;;;;;;;9.35;2.55;;;17.00;76.60;;;;;;4808595;29;20059;-76
2022/10/01 13:54:51;;;;;;;13.48;2.38;;;17.00;76.70;;;;;;4809500;29;20057;-72
2022/10/01 13:57:43;;;;;;;9.25;2.03;;;17.10;76.90;;;;;;4809611;29;20046;-74
2022/10/01 14:00:12;;;;;;;12.60;2.35;;;17.10;76.60;;;;;;4807042;29;20066;-74
2022/10/01 14:02:40;;;;;;;8.07;2.17;;;17.10;77.20;;;;;;4809162;29;20475;-73
2022/10/01 14:05:21;;;;;;;10.15;2.28;;;17.10;77.10;;;;;;4809316;29;20094;-82
2022/10/01 14:07:50;;;;;;;10.07;2.55;;;17.10;76.90;;;;;;4810037;29;20436;-77
2022/10/01 14:10:18;;;;;;;10.95;2.38;;;17.10;77.00;;;;;;4809631;29;20129;-73
2022/10/01 14:16:01;;;;;;;12.60;2.60;;;17.20;76.30;;;;;;4809377;29;20067;-75
2022/10/01 14:18:37;;;;;;;10.93;2.47;;;17.20;74.90;;;;;;4809364;29;20050;-77
2022/10/01 14:21:21;;;;;;;10.00;2.13;;;17.10;73.70;;;;;;4802388;29;20104;-74
2022/10/01 14:24:01;;;;;;;9.98;2.08;;;17.10;72.70;;;;;;4809038;29;20058;-72
2022/10/01 14:26:38;;;;;;;11.13;1.88;;;17.00;72.60;;;;;;4793768;29;20082;-73
2022/10/01 14:29:43;;;;;;;11.48;2.10;;;17.00;72.90;;;;;;4809258;29;20051;-76
2022/10/01 14:32:27;;;;;;;12.35;2.00;;;17.00;73.00;;;;;;4772136;29;20051;-76
2022/10/01 14:34:58;;;;;;;;;;;17.00;72.20;;;;;;4793456;29;20125;-74
2022/10/01 14:37:24;;;;;;;10.07;2.28;;;16.90;72.90;;;;;;4808165;29;19925;-75
2022/10/01 14:40:01;;;;;;;11.48;2.22;;;16.90;73.50;;;;;;4778193;29;20069;-75
2022/10/01 14:42:27;;;;;;;17.63;3.55;;;16.90;73.80;;;;;;4792742;29;20054;-78
2022/10/01 14:44:52;;;;;;;8.77;3.50;;;17.00;74.80;;;;;;4792345;29;20046;-76
2022/10/01 14:47:23;;;;;;;11.55;3.55;;;17.00;75.10;;;;;;4808456;29;20035;-75
2022/10/01 14:49:50;;;;;;;11.70;3.70;;;17.10;75.40;;;;;;4808795;29;20493;-73
2022/10/01 14:52:19;;;;;;;16.80;3.58;;;17.10;75.40;;;;;;4808806;29;20133;-80
2022/10/01 14:54:58;;;;;;;12.52;3.15;;;17.10;75.70;;;;;;4792819;29;20131;-72
2022/10/01 14:57:30;;;;;;;21.38;3.88;;;17.10;75.70;;;;;;4808145;29;20481;-77
2022/10/01 15:00:07;;;;;;;15.93;3.60;;;17.10;75.90;;;;;;4808597;29;20111;-77
2022/10/01 15:02:33;;;;;;;7.60;2.20;;;17.20;76.00;;;;;;4809011;29;20497;-78
2022/10/01 15:04:59;;;;;;;12.02;2.53;;;17.20;75.60;;;;;;4808658;29;20133;-77
2022/10/01 15:07:31;;;;;;;14.57;2.90;;;17.20;74.20;;;;;;4808096;29;20089;-74
2022/10/01 15:10:07;;;;;;;9.13;2.35;;;17.20;73.50;;;;;;4807889;29;20047;-77
2022/10/01 15:12:39;;;;;;;12.07;2.45;;;17.20;73.00;;;;;;4809143;29;20374;-74
2022/10/01 15:15:18;;;;;;;10.85;2.58;;;17.10;73.20;;;;;;4808708;29;20397;-72
2022/10/01 15:17:45;;;;;;;8.52;2.13;;;17.10;73.40;;;;;;4808120;29;20057;-77
2022/10/01 15:20:12;;;;;;;14.38;2.35;;;17.10;73.50;;;;;;4808087;29;20055;-75
2022/10/01 15:22:39;;;;;;;16.08;2.72;;;17.10;73.30;;;;;;4808262;29;20093;-75
2022/10/01 15:25:05;;;;;;;12.57;2.63;;;17.10;73.30;;;;;;4808166;29;20051;-72
2022/10/01 15:27:32;;;;;;;10.20;2.00;;;17.10;73.50;;;;;;4776191;29;20123;-75
2022/10/01 15:29:58;;;;;;;14.05;2.47;;;17.10;73.30;;;;;;4808316;29;20374;-75
2022/10/01 15:32:26;;;;;;;12.20;2.47;;;17.10;73.20;;;;;;4808315;29;20051;-79
2022/10/01 15:34:59;;;;;;;13.32;2.75;;;17.10;73.10;;;;;;4784433;29;20120;-83
2022/10/01 15:37:32;;;;;;;13.80;2.38;;;17.10;73.00;;;;;;4783375;29;20142;-82
2022/10/01 15:39:59;;;;;;;17.02;2.80;;;17.10;73.30;;;;;;4783391;29;20128;-83
2022/10/01 15:42:35;;;;;;;10.30;1.63;;;17.10;73.30;;;;;;4798276;29;20035;-86
2022/10/01 15:45:07;;;;;;;9.63;2.20;;;17.10;73.60;;;;;;4782355;29;20057;-82
2022/10/01 15:47:37;;;;;;;12.63;2.35;;;17.20;73.90;;;;;;4796139;29;20089;-77
2022/10/01 15:50:10;;;;;;;14.10;3.15;;;17.10;73.80;;;;;;4807528;29;20372;-82
2022/10/01 15:52:49;;;;;;;11.23;2.30;;;17.10;73.80;;;;;;4792139;29;20192;-82
2022/10/01 15:55:51;;;;;;;14.68;1.90;;;17.20;74.10;;;;;;4786505;29;20051;-81
2022/10/01 15:58:25;;;;;;;13.75;2.50;;;17.20;74.00;;;;;;4792134;29;20155;-77
2022/10/01 16:01:09;;;;;;;9.52;1.55;;;17.20;74.00;;;;;;4808008;29;20046;-75
2022/10/01 16:03:35;;;;;;;17.08;2.85;;;17.20;74.00;;;;;;4790381;29;20065;-80
2022/10/01 16:06:03;;;;;;;11.48;2.40;;;17.20;74.00;;;;;;4792858;29;20055;-80
2022/10/01 16:08:35;;;;;;;11.77;2.53;;;17.10;74.10;;;;;;4792299;29;20063;-81
2022/10/01 16:11:17;;;;;;;12.05;3.05;;;17.20;74.30;;;;;;4791815;29;20062;-80
2022/10/01 16:13:49;;;;;;;10.55;2.33;;;17.10;74.30;;;;;;4791959;29;20042;-80
2022/10/01 16:16:25;;;;;;;12.85;2.45;;;17.10;74.40;;;;;;4807933;29;20051;-81
2022/10/01 16:19:18;;;;;;;21.55;2.47;;;17.10;74.60;;;;;;4791927;29;20111;-79
2022/10/01 16:22:16;;;;;;;15.43;2.40;;;17.10;74.60;;;;;;4791596;29;20090;-79
2022/10/01 16:24:51;;;;;;;12.73;2.13;;;17.10;74.80;;;;;;4791708;29;20063;-79
2022/10/01 16:27:30;;;;;;;12.48;2.35;;;17.00;74.90;;;;;;4789480;30;20051;-81
2022/10/01 16:30:10;;;;;;;19.33;2.55;;;17.10;75.00;;;;;;4788773;30;20094;-80
2022/10/01 16:32:36;;;;;;;13.23;3.22;;;17.20;75.10;;;;;;4774055;30;20116;-81
2022/10/01 16:35:34;;;;;;;15.55;2.80;;;17.10;75.20;;;;;;4773842;30;20090;-74
2022/10/01 16:38:00;;;;;;;10.80;2.55;;;17.10;75.00;;;;;;4789062;29;20059;-74
2022/10/01 16:40:30;;;;;;;13.95;2.63;;;17.10;74.80;;;;;;4793968;30;20355;-75
2022/10/01 16:42:58;;;;;;;11.93;2.30;;;17.10;74.60;;;;;;4793293;30;20126;-76
2022/10/01 16:45:26;;;;;;;17.60;2.33;;;17.10;74.50;;;;;;4793419;30;20051;-74
2022/10/01 16:47:55;;;;;;;13.93;2.58;;;17.10;74.40;;;;;;4793481;30;20062;-74
2022/10/01 16:50:21;;;;;;;12.75;3.60;;;17.10;74.40;;;;;;4806929;29;20071;-75
2022/10/01 16:52:51;;;;;;;14.40;2.65;;;17.10;74.10;;;;;;4811144;29;20130;-71
2022/10/01 16:55:23;;;;;;;17.98;2.60;;;17.10;73.80;;;;;;4811502;29;20142;-77
2022/10/01 16:57:50;;;;;;;12.27;2.47;;;17.10;73.20;;;;;;4811380;29;20050;-75
2022/10/01 17:00:17;;;;;;;27.65;3.63;;;17.10;73.00;;;;;;4811056;29;20051;-76
2022/10/01 17:02:44;;;;;;;19.83;3.42;;;17.10;72.80;;;;;;4810893;29;20082;-73
2022/10/01 17:05:21;;;;;;;13.18;2.92;;;17.10;72.60;;;;;;4811323;29;20054;-73
2022/10/01 17:07:47;;;;;;;13.38;2.55;;;17.10;72.20;;;;;;4810933;29;20455;-74
2022/10/01 17:10:15;;;;;;;22.08;3.42;;;17.10;72.30;;;;;;4795114;29;20467;-73
2022/10/01 17:12:41;;;;;;;13.18;2.10;;;17.10;72.30;;;;;;4809933;29;20375;-74
2022/10/01 17:15:11;;;;;;;15.25;2.45;;;17.10;72.50;;;;;;4810784;29;20051;-73
2022/10/01 17:17:37;;;;;;;15.38;2.40;;;17.20;72.50;;;;;;4809694;29;20520;-73
2022/10/01 17:20:03;;;;;;;20.65;2.95;;;17.20;72.50;;;;;;4811065;29;20055;-73
2022/10/01 17:22:30;;;;;;;10.85;2.47;;;17.10;72.50;;;;;;4810593;29;20058;-73
2022/10/01 17:24:56;;;;;;;12.20;2.55;;;17.20;72.60;;;;;;4810514;29;20142;-74
2022/10/01 17:27:21;;;;;;;11.02;2.92;;;17.20;72.70;;;;;;4810594;29;20125;-74
2022/10/01 17:29:47;;;;;;;16.75;2.70;;;17.20;72.80;;;;;;4810901;29;20403;-74
2022/10/01 17:32:17;;;;;;;14.10;2.95;;;17.20;72.80;;;;;;4810421;29;20054;-74
2022/10/01 17:34:44;;;;;;;15.27;2.22;;;17.20;72.80;;;;;;4810791;29;20058;-74
2022/10/01 17:37:10;;;;;;;11.38;1.85;;;17.20;72.90;;;;;;4810450;29;20137;-74
2022/10/01 17:39:36;;;;;;;14.80;2.67;;;17.20;72.90;;;;;;4810279;29;20438;-74
2022/10/01 17:42:02;;;;;;;8.63;1.90;;;17.20;72.90;;;;;;4810407;29;20094;-73
2022/10/01 17:44:27;;;;;;;8.48;1.90;;;17.30;73.00;;;;;;4810274;29;20093;-73
2022/10/01 17:46:53;;;;;;;13.23;2.38;;;17.20;72.90;;;;;;4810802;29;20098;-73
2022/10/01 17:49:19;;;;;;;11.70;2.00;;;17.20;73.00;;;;;;4809986;29;20062;-73
2022/10/01 17:51:46;;;;;;;15.88;2.10;;;17.20;73.00;;;;;;4810614;29;20091;-73
2022/10/01 17:54:11;;;;;;;11.48;2.20;;;17.20;73.10;;;;;;4810326;29;20090;-73
2022/10/01 17:56:37;;;;;;;10.45;2.10;;;17.20;72.90;;;;;;4810844;29;20062;-74
2022/10/01 17:59:03;;;;;;;8.15;1.65;;;17.30;73.00;;;;;;4810640;29;20053;-74
2022/10/01 18:01:30;;;;;;;15.57;2.20;;;17.20;73.30;;;;;;4778829;29;20066;-75
2022/10/01 18:03:56;;;;;;;13.55;2.08;;;17.20;74.00;;;;;;4793927;29;20058;-72
2022/10/01 18:06:23;;;;;;;13.13;2.20;;;17.20;74.10;;;;;;4808568;29;20051;-74
2022/10/01 18:08:49;;;;;;;16.02;2.00;;;17.20;74.90;;;;;;4809659;29;20047;-74
2022/10/01 18:11:15;;;;;;;11.90;2.42;;;17.20;74.30;;;;;;4793497;29;20391;-74
2022/10/01 18:13:40;;;;;;;10.13;2.67;;;17.20;74.30;;;;;;4793517;29;20059;-73
2022/10/01 18:16:13;;;;;;;9.00;2.20;;;17.20;74.20;;;;;;4809537;29;20111;-74
2022/10/01 18:18:41;;;;;;;14.35;2.15;;;17.20;74.10;;;;;;4809426;29;20046;-80
2022/10/01 18:21:15;;;;;;;10.50;2.42;;;17.20;74.00;;;;;;4793560;29;20078;-81
2022/10/01 18:23:41;;;;;;;17.98;2.92;;;17.20;74.30;;;;;;4793700;29;20199;-81
2022/10/01 18:26:09;;;;;;;13.93;2.17;;;17.20;74.50;;;;;;4808533;29;20073;-82
2022/10/01 18:28:35;;;;;;;10.55;2.30;;;17.10;74.60;;;;;;4809145;29;20065;-82
2022/10/01 18:31:10;;;;;;;9.93;2.10;;;17.10;74.70;;;;;;4793697;29;20062;-81
2022/10/01 18:33:58;;;;;;;15.13;2.38;;;17.10;74.80;;;;;;4793386;29;20045;-81
2022/10/01 18:36:55;;;;;;;9.82;1.70;;;17.10;74.90;;;;;;4809008;29;20043;-82
2022/10/01 18:39:44;;;;;;;7.50;1.75;;;17.20;74.90;;;;;;4770222;30;20047;-83
2022/10/01 18:42:17;;;;;;;12.35;2.03;;;17.10;74.70;;;;;;4780343;29;20047;-84
2022/10/01 18:44:42;;;;;;;9.90;1.80;;;17.10;74.90;;;;;;4788351;29;20105;-82
2022/10/01 18:47:14;;;;;;;10.10;2.30;;;17.10;75.00;;;;;;4792996;29;20085;-85
2022/10/01 18:49:52;;;;;;;9.27;2.38;;;17.10;75.20;;;;;;4789734;29;20054;-77
2022/10/01 18:52:27;;;;;;;14.00;2.92;;;17.20;75.50;;;;;;4792298;29;20047;-86
2022/10/01 18:55:24;;;;;;;11.38;2.00;;;17.10;75.60;;;;;;4807442;29;20103;-85
2022/10/01 18:58:18;;;;;;;9.18;2.08;;;17.20;75.50;;;;;;4790538;30;20047;-83
2022/10/01 19:01:20;;;;;;;9.50;1.95;;;17.20;75.50;;;;;;4774306;30;20541;-85
2022/10/01 19:04:24;;;;;;;11.10;2.47;;;17.20;75.40;;;;;;4782214;29;20082;-84
2022/10/01 19:07:27;;;;;;;10.02;1.98;;;17.20;75.20;;;;;;4778199;29;20080;-84
2022/10/01 19:10:12;;;;;;;11.70;2.45;;;17.20;75.20;;;;;;4807474;29;20083;-83
2022/10/01 19:13:12;;;;;;;9.23;1.90;;;17.20;75.10;;;;;;4778029;29;20058;-84
2022/10/01 19:19:51;;;;;;;7.82;2.00;;;17.20;74.80;;;;;;4702640;30;20060;-82
2022/10/01 19:26:48;;;;;;;9.35;1.45;;;17.20;75.40;;;;;;4715337;30;20428;-87
2022/10/01 19:29:46;;;;;;;13.48;2.55;;;17.20;75.50;;;;;;4795509;29;20386;-87
2022/10/01 19:32:32;;;;;;;7.38;1.58;;;17.20;75.60;;;;;;4792810;29;20133;-81
2022/10/01 19:35:24;;;;;;;8.05;2.00;;;17.20;75.40;;;;;;4768829;29;20043;-84
2022/10/01 19:38:09;;;;;;;6.28;1.40;;;17.20;75.20;;;;;;4791773;29;20038;-82
2022/10/01 19:40:53;;;;;;;7.88;1.48;;;17.20;75.20;;;;;;4792552;29;20055;-81
2022/10/01 19:43:35;;;;;;;8.85;1.92;;;17.20;75.70;;;;;;4808168;29;20121;-84
2022/10/01 19:46:15;;;;;;;9.80;1.45;;;17.20;76.00;;;;;;4806277;29;20051;-82
2022/10/01 19:49:12;;;;;;;7.22;1.40;;;17.20;76.20;;;;;;4798050;29;20058;-81
2022/10/01 19:51:44;;;;;;;5.35;1.40;;;17.20;76.30;;;;;;4791844;29;20150;-80
2022/10/01 19:54:15;;;;;;;6.15;1.65;;;17.20;76.40;;;;;;4807081;29;20057;-81
2022/10/01 19:56:43;;;;;;;7.47;1.58;;;17.20;76.40;;;;;;4779868;30;20497;-82
2022/10/01 19:59:15;;;;;;;10.07;1.52;;;17.20;76.40;;;;;;4774089;30;20480;-82
2022/10/01 20:01:47;;;;;;;8.20;1.65;;;17.20;76.40;;;;;;4758957;30;20043;-84
2022/10/01 20:04:20;;;;;;;7.15;1.73;;;17.20;76.30;;;;;;4790827;29;20070;-83
2022/10/01 20:06:46;;;;;;;6.40;1.23;;;17.20;76.30;;;;;;4792436;29;20042;-84
2022/10/01 20:09:27;;;;;;;4.07;1.00;;;17.20;76.30;;;;;;4791960;29;20051;-84
2022/10/01 20:12:14;;;;;;;6.72;1.92;;;17.20;76.30;;;;;;4806871;29;20046;-82
2022/10/01 20:15:32;;;;;;;4.38;1.33;;;17.20;76.30;;;;;;4806896;29;20047;-82
2022/10/01 20:18:33;;;;;;;6.03;1.30;;;17.20;76.30;;;;;;4801777;29;20051;-82
2022/10/01 20:21:31;;;;;;;5.47;1.38;;;17.10;76.20;;;;;;4791772;29;20043;-83
2022/10/01 20:24:31;;;;;;;5.43;1.25;;;17.10;76.10;;;;;;4767312;29;20085;-83
2022/10/01 20:27:05;;;;;;;8.55;1.48;;;17.20;76.20;;;;;;4791821;29;20058;-83
2022/10/01 20:29:42;;;;;;;6.07;1.42;;;17.20;76.10;;;;;;4807563;29;20507;-84
2022/10/01 20:32:17;;;;;;;5.47;1.23;;;17.20;76.00;;;;;;4791890;29;20074;-83
2022/10/01 20:34:47;;;;;;;8.90;1.58;;;17.10;75.90;;;;;;4807796;29;20053;-82
2022/10/01 20:37:43;;;;;;;5.45;1.10;;;17.20;75.90;;;;;;4821457;29;20051;-80
2022/10/01 20:40:24;;;;;;;4.82;1.02;;;17.20;75.90;;;;;;4791930;29;20100;-82
2022/10/01 20:43:01;;;;;;;5.35;1.27;;;17.20;75.90;;;;;;4774599;29;20055;-80
2022/10/01 20:45:30;;;;;;;6.28;1.60;;;17.10;75.90;;;;;;4784510;29;20066;-81
2022/10/01 20:48:02;;;;;;;7.68;1.70;;;17.20;75.90;;;;;;4791930;29;20054;-81
2022/10/01 20:50:42;;;;;;;5.97;1.45;;;17.20;76.00;;;;;;4792315;29;20050;-77
2022/10/01 20:53:37;;;;;;;9.00;1.33;;;17.10;76.50;;;;;;4791356;29;20066;-83
2022/10/01 20:56:15;;;;;;;4.93;1.17;;;17.10;75.90;;;;;;4791269;29;20474;-80
2022/10/01 20:58:55;;;;;;;5.32;1.10;;;17.10;75.90;;;;;;4791429;29;20126;-80
2022/10/01 21:01:24;;;;;;;5.43;0.93;;;17.10;75.90;;;;;;4806418;29;20066;-82
2022/10/01 21:04:01;;;;;;;6.13;1.60;;;17.10;75.90;;;;;;4806462;29;20055;-83
2022/10/01 21:06:33;;;;;;;7.30;1.00;;;17.10;75.80;;;;;;4791243;29;20054;-82
2022/10/01 21:09:18;;;;;;;3.10;1.00;;;17.10;75.80;;;;;;4791758;29;20086;-82
2022/10/01 21:12:10;;;;;;;5.57;1.20;;;17.10;75.80;;;;;;4806754;29;20464;-81
2022/10/01 21:14:48;;;;;;;4.40;1.42;;;17.10;75.70;;;;;;4807330;29;20057;-80
2022/10/01 21:17:32;;;;;;;8.93;1.45;;;17.10;75.70;;;;;;4776084;29;20090;-76
2022/10/01 21:20:21;;;;;;;3.75;0.80;;;17.10;75.70;;;;;;4807245;29;20082;-76
2022/10/01 21:23:21;;;;;;;6.18;1.30;;;17.10;75.40;;;;;;4807037;29;20047;-76
2022/10/01 21:26:24;;;;;;;8.10;1.65;;;17.10;75.40;;;;;;4809661;29;20496;-75
2022/10/01 21:29:16;;;;;;;3.95;1.30;;;17.10;75.00;;;;;;4810590;29;20058;-77
2022/10/01 21:31:52;;;;;;;10.38;1.80;;;17.10;74.70;;;;;;4800517;29;20062;-76
2022/10/01 21:34:31;;;;;;;7.55;1.70;;;17.20;75.00;;;;;;4810162;29;20054;-78
2022/10/01 21:37:08;;;;;;;5.70;1.40;;;17.20;74.20;;;;;;4810461;29;20059;-80
2022/10/01 21:40:02;;;;;;;8.88;1.92;;;17.10;74.40;;;;;;4804015;29;20479;-79
2022/10/01 21:43:11;;;;;;;9.05;1.98;;;17.10;74.60;;;;;;4777042;30;20089;-80
2022/10/01 21:45:45;;;;;;;3.95;1.10;;;17.10;74.70;;;;;;4779677;29;20146;-81